Time;durP1;ratioP1;P1;durP2;ratioP2;P2;SDS_P1;SDS_P2;PMS_P1;PMS_P2;Temp;Humidity;BMP_temperature;BMP_pressure;BME280_temperature;BME280_humidity;BME280_pressure;Samples;Min_cycle;Max_cycle;Signal;HPM_P1;HPM_P2
2022/10/15 00:00:40;;;;;;;1.42;0.80;;;;;;;;;;5049698;28;20053;-87
2022/10/15 00:03:07;;;;;;;1.58;0.60;;;;;;;;;;5033046;28;20060;-86
2022/10/15 00:05:38;;;;;;;1.05;0.68;;;;;;;;;;5049302;28;20053;-87
2022/10/15 00:08:06;;;;;;;1.25;0.77;;;;;;;;;;5049394;28;20490;-87
2022/10/15 00:10:33;;;;;;;1.20;0.60;;;;;;;;;;5049222;28;20058;-87
2022/10/15 00:13:00;;;;;;;1.00;0.47;;;;;;;;;;5033883;28;20050;-87
2022/10/15 00:15:27;;;;;;;0.68;0.65;;;;;;;;;;5049272;28;20128;-87
2022/10/15 00:17:54;;;;;;;0.73;0.57;;;;;;;;;;5048676;28;20060;-86
2022/10/15 00:20:22;;;;;;;1.08;0.63;;;;;;;;;;5033911;28;20057;-86
2022/10/15 00:22:49;;;;;;;0.68;0.68;;;;;;;;;;5048903;28;20482;-86
2022/10/15 00:25:16;;;;;;;0.55;0.50;;;;;;;;;;5049243;28;20421;-86
2022/10/15 00:27:43;;;;;;;3.50;0.88;;;;;;;;;;5049120;28;20049;-86
2022/10/15 00:30:11;;;;;;;1.50;0.70;;;;;;;;;;5048757;28;20053;-86
2022/10/15 00:32:38;;;;;;;0.68;0.63;;;;;;;;;;5048832;28;20504;-86
2022/10/15 00:35:05;;;;;;;0.52;0.52;;;;;;;;;;5048939;28;20061;-86
2022/10/15 00:37:32;;;;;;;4.03;1.10;;;;;;;;;;5033618;28;20045;-86
2022/10/15 00:40:00;;;;;;;0.75;0.75;;;;;;;;;;5033456;28;20054;-87
2022/10/15 00:42:32;;;;;;;2.08;0.80;;;;;;;;;;5048211;28;20413;-86
2022/10/15 00:44:59;;;;;;;4.63;1.10;;;;;;;;;;5033218;28;20053;-87
2022/10/15 00:47:28;;;;;;;6.90;1.00;;;;;;;;;;5048895;28;20049;-87
2022/10/15 00:50:00;;;;;;;0.88;0.88;;;;;;;;;;5033336;28;20049;-87
2022/10/15 00:52:28;;;;;;;1.13;0.82;;;;;;;;;;5049011;28;20049;-86
2022/10/15 00:55:15;;;;;;;2.65;1.10;;;;;;;;;;5048576;28;20064;-86
2022/10/15 00:57:43;;;;;;;0.80;0.80;;;;;;;;;;5022149;28;20049;-87
2022/10/15 01:00:14;;;;;;;1.88;1.10;;;;;;;;;;5048968;28;20482;-86
2022/10/15 01:02:42;;;;;;;1.95;0.90;;;;;;;;;;5048633;28;20042;-87
2022/10/15 01:05:10;;;;;;;3.60;0.90;;;;;;;;;;5048809;28;20099;-86
2022/10/15 01:07:37;;;;;;;1.20;0.82;;;;;;;;;;5048619;28;20049;-87
2022/10/15 01:10:05;;;;;;;1.27;1.10;;;;;;;;;;5048321;28;20069;-87
2022/10/15 01:12:43;;;;;;;0.90;0.90;;;;;;;;;;5048433;28;20045;-87
2022/10/15 01:15:16;;;;;;;1.40;1.13;;;;;;;;;;5033222;28;20056;-87
2022/10/15 01:17:43;;;;;;;1.25;0.98;;;;;;;;;;5048719;28;20060;-86
2022/10/15 01:20:19;;;;;;;3.38;2.90;;;;;;;;;;5032916;28;20064;-86
2022/10/15 01:23:13;;;;;;;3.00;1.63;;;;;;;;;;5048759;28;20053;-87
2022/10/15 01:25:52;;;;;;;1.58;1.20;;;;;;;;;;5010445;28;20080;-87
2022/10/15 01:28:22;;;;;;;3.75;1.33;;;;;;;;;;5048540;28;20484;-87
2022/10/15 01:30:55;;;;;;;1.50;1.08;;;;;;;;;;5036712;28;20056;-86
2022/10/15 01:33:42;;;;;;;1.10;1.10;;;;;;;;;;5052573;28;20045;-87
2022/10/15 01:36:15;;;;;;;1.60;1.15;;;;;;;;;;5052257;28;20509;-87
2022/10/15 01:38:46;;;;;;;2.28;1.20;;;;;;;;;;5051993;28;20041;-87
2022/10/15 01:41:26;;;;;;;4.10;1.00;;;;;;;;;;5052454;28;20056;-87
2022/10/15 01:43:59;;;;;;;1.95;1.27;;;;;;;;;;5051921;28;20061;-87
2022/10/15 01:46:46;;;;;;;1.58;1.17;;;;;;;;;;5052244;28;20045;-87
2022/10/15 01:49:15;;;;;;;1.27;1.17;;;;;;;;;;5026542;28;20084;-87
2022/10/15 01:51:43;;;;;;;1.30;1.20;;;;;;;;;;5036370;28;20052;-87
2022/10/15 01:54:13;;;;;;;3.15;1.50;;;;;;;;;;5051799;28;20054;-87
2022/10/15 01:56:48;;;;;;;2.60;1.48;;;;;;;;;;5036297;28;20054;-87
2022/10/15 01:59:17;;;;;;;5.25;1.50;;;;;;;;;;5052385;28;20217;-87
2022/10/15 02:01:44;;;;;;;8.05;1.63;;;;;;;;;;5036340;28;20514;-87
2022/10/15 02:04:20;;;;;;;4.65;1.45;;;;;;;;;;5051862;28;20132;-87
2022/10/15 02:06:49;;;;;;;2.97;1.52;;;;;;;;;;5051622;28;20426;-87
2022/10/15 02:09:29;;;;;;;3.63;0.95;;;;;;;;;;5035871;28;20568;-86
2022/10/15 02:12:07;;;;;;;1.35;1.17;;;;;;;;;;5036208;28;20494;-87
2022/10/15 02:14:37;;;;;;;2.10;1.10;;;;;;;;;;5035897;28;20501;-87
2022/10/15 02:17:11;;;;;;;1.65;1.52;;;;;;;;;;5035971;28;20128;-87
2022/10/15 02:19:56;;;;;;;3.03;1.30;;;;;;;;;;5051540;28;20049;-87
2022/10/15 02:22:28;;;;;;;2.15;1.30;;;;;;;;;;5036295;28;20049;-87
2022/10/15 02:25:04;;;;;;;1.23;1.23;;;;;;;;;;5051390;28;20497;-87
2022/10/15 02:27:32;;;;;;;3.17;1.20;;;;;;;;;;5035814;28;20455;-87
2022/10/15 02:30:02;;;;;;;1.33;1.20;;;;;;;;;;5051290;28;20148;-87
2022/10/15 02:32:30;;;;;;;1.20;1.15;;;;;;;;;;5051551;28;20121;-87
2022/10/15 02:34:57;;;;;;;2.45;1.42;;;;;;;;;;5035549;28;20056;-87
2022/10/15 02:37:26;;;;;;;1.20;1.15;;;;;;;;;;5035624;28;20045;-87
2022/10/15 02:39:53;;;;;;;1.02;1.02;;;;;;;;;;5050610;28;20049;-87
2022/10/15 02:42:20;;;;;;;3.63;1.60;;;;;;;;;;5050957;28;20490;-87
2022/10/15 02:44:48;;;;;;;2.28;1.27;;;;;;;;;;5050958;28;20516;-87
2022/10/15 02:47:15;;;;;;;1.08;1.08;;;;;;;;;;5035872;28;20053;-87
2022/10/15 02:49:43;;;;;;;1.40;1.20;;;;;;;;;;5035566;28;20060;-87
2022/10/15 02:52:10;;;;;;;1.23;1.17;;;;;;;;;;5050990;28;20045;-87
2022/10/15 02:54:37;;;;;;;1.73;1.10;;;;;;;;;;5050499;28;20053;-87
2022/10/15 02:57:04;;;;;;;1.90;1.58;;;;;;;;;;5050772;28;20056;-87
2022/10/15 02:59:32;;;;;;;3.70;1.50;;;;;;;;;;5050999;28;20417;-88
2022/10/15 03:01:59;;;;;;;2.05;1.30;;;;;;;;;;5050693;28;20056;-87
2022/10/15 03:04:26;;;;;;;1.60;1.50;;;;;;;;;;5050686;28;20049;-87
2022/10/15 03:06:53;;;;;;;1.35;1.33;;;;;;;;;;5050743;28;20041;-87
2022/10/15 03:09:20;;;;;;;1.67;1.30;;;;;;;;;;5050501;28;20057;-87
2022/10/15 03:11:47;;;;;;;2.20;1.60;;;;;;;;;;5050729;28;20053;-87
2022/10/15 03:14:14;;;;;;;2.42;1.40;;;;;;;;;;5035191;28;20049;-87
2022/10/15 03:16:41;;;;;;;2.30;1.45;;;;;;;;;;5050665;28;20128;-87
2022/10/15 03:19:09;;;;;;;3.78;1.40;;;;;;;;;;5051042;28;20049;-87
2022/10/15 03:21:36;;;;;;;1.75;1.50;;;;;;;;;;5035916;28;20049;-87
2022/10/15 03:24:03;;;;;;;1.33;1.23;;;;;;;;;;5050791;28;20049;-88
2022/10/15 03:26:30;;;;;;;3.33;1.40;;;;;;;;;;5050378;28;20054;-87
2022/10/15 03:28:57;;;;;;;1.23;1.13;;;;;;;;;;5050337;28;20063;-87
2022/10/15 03:31:25;;;;;;;3.05;1.58;;;;;;;;;;5050326;28;20490;-87
2022/10/15 03:33:52;;;;;;;4.13;1.58;;;;;;;;;;5050262;28;20055;-87
2022/10/15 03:36:19;;;;;;;2.45;1.50;;;;;;;;;;5050198;28;20073;-87
2022/10/15 03:38:46;;;;;;;1.27;1.17;;;;;;;;;;5049816;28;20665;-87
2022/10/15 03:41:13;;;;;;;1.55;1.35;;;;;;;;;;5034772;28;20056;-87
2022/10/15 03:43:41;;;;;;;3.53;1.63;;;;;;;;;;5050106;28;20045;-88
2022/10/15 03:46:09;;;;;;;1.75;1.65;;;;;;;;;;5034218;28;20140;-87
2022/10/15 03:48:36;;;;;;;2.42;1.67;;;;;;;;;;5049829;28;20049;-87
2022/10/15 03:51:03;;;;;;;1.42;1.30;;;;;;;;;;5034333;28;20057;-87
2022/10/15 03:53:30;;;;;;;2.03;1.73;;;;;;;;;;5049307;28;20513;-87
2022/10/15 03:56:07;;;;;;;5.97;1.63;;;;;;;;;;5049444;28;20485;-87
2022/10/15 03:58:34;;;;;;;1.50;1.40;;;;;;;;;;5034466;28;20410;-87
2022/10/15 04:01:01;;;;;;;5.40;1.75;;;;;;;;;;5049505;28;20494;-88
2022/10/15 04:03:28;;;;;;;3.03;1.20;;;;;;;;;;5049629;28;20045;-87
2022/10/15 04:05:56;;;;;;;1.73;1.25;;;;;;;;;;5049532;28;20053;-87
2022/10/15 04:08:28;;;;;;;3.85;1.30;;;;;;;;;;5034095;28;20083;-88
2022/10/15 04:10:56;;;;;;;2.25;1.80;;;;;;;;;;5033976;28;20049;-87
2022/10/15 04:13:23;;;;;;;2.20;1.58;;;;;;;;;;5034073;28;20050;-87
2022/10/15 04:15:50;;;;;;;4.97;1.25;;;;;;;;;;5048816;28;20052;-87
2022/10/15 04:18:20;;;;;;;1.60;1.50;;;;;;;;;;5048139;28;20045;-87
2022/10/15 04:20:48;;;;;;;3.60;1.42;;;;;;;;;;5049674;28;20457;-87
2022/10/15 04:23:16;;;;;;;0.93;0.93;;;;;;;;;;5049400;28;20478;-87
2022/10/15 04:25:44;;;;;;;2.35;1.33;;;;;;;;;;5049282;28;20490;-87
2022/10/15 04:28:12;;;;;;;1.48;1.38;;;;;;;;;;5049041;28;20068;-87
2022/10/15 04:30:39;;;;;;;2.25;1.20;;;;;;;;;;5049337;28;20056;-87
2022/10/15 04:33:06;;;;;;;1.50;1.40;;;;;;;;;;5049298;28;20418;-88
2022/10/15 04:35:33;;;;;;;2.47;1.25;;;;;;;;;;5033412;28;20482;-87
2022/10/15 04:38:01;;;;;;;1.45;1.35;;;;;;;;;;5049014;28;20111;-88
2022/10/15 04:40:28;;;;;;;2.88;1.60;;;;;;;;;;5033648;28;20041;-87
2022/10/15 04:42:55;;;;;;;1.77;1.42;;;;;;;;;;5033370;28;20061;-88
2022/10/15 04:45:22;;;;;;;1.15;0.93;;;;;;;;;;5048947;28;20133;-87
2022/10/15 04:47:56;;;;;;;0.88;0.85;;;;;;;;;;5048305;28;20042;-87
2022/10/15 04:50:23;;;;;;;1.10;1.10;;;;;;;;;;5048858;28;20049;-87
2022/10/15 04:52:50;;;;;;;1.08;1.08;;;;;;;;;;5048893;28;20049;-87
2022/10/15 04:55:17;;;;;;;1.30;1.30;;;;;;;;;;5033099;28;20056;-87
2022/10/15 04:57:44;;;;;;;1.92;1.83;;;;;;;;;;5048818;28;20045;-87
2022/10/15 05:00:12;;;;;;;4.03;3.17;;;;;;;;;;5048726;28;20049;-87
2022/10/15 05:02:42;;;;;;;6.63;4.97;;;;;;;;;;5049696;28;20042;-87
2022/10/15 05:05:09;;;;;;;6.88;6.28;;;;;;;;;;5055315;28;20056;-87
2022/10/15 05:07:36;;;;;;;9.07;7.00;;;;;;;;;;5055650;28;20076;-87
2022/10/15 05:10:03;;;;;;;9.68;6.70;;;;;;;;;;5055041;28;20056;-88
2022/10/15 05:12:31;;;;;;;8.48;6.63;;;;;;;;;;5055621;28;20053;-88
2022/10/15 05:14:58;;;;;;;6.22;5.80;;;;;;;;;;5055238;28;20509;-88
2022/10/15 05:17:25;;;;;;;8.10;6.72;;;;;;;;;;5055499;28;20045;-88
2022/10/15 05:19:52;;;;;;;7.68;5.88;;;;;;;;;;5055147;28;20104;-87
2022/10/15 05:22:20;;;;;;;5.55;3.67;;;;;;;;;;5039792;28;20046;-88
2022/10/15 05:24:48;;;;;;;7.85;3.20;;;;;;;;;;5054997;28;20521;-88
2022/10/15 05:27:15;;;;;;;4.13;3.65;;;;;;;;;;5055156;28;20482;-88
2022/10/15 05:29:42;;;;;;;4.63;2.80;;;;;;;;;;5055421;28;20053;-87
2022/10/15 05:32:09;;;;;;;3.45;3.15;;;;;;;;;;5055304;28;20049;-88
2022/10/15 05:34:36;;;;;;;4.93;3.25;;;;;;;;;;5054966;28;20050;-87
2022/10/15 05:37:03;;;;;;;4.22;3.80;;;;;;;;;;5039607;28;20045;-87
2022/10/15 05:39:31;;;;;;;4.40;4.10;;;;;;;;;;5055073;28;20052;-87
2022/10/15 05:41:58;;;;;;;3.30;2.60;;;;;;;;;;5039628;28;20055;-87
2022/10/15 05:44:25;;;;;;;4.28;2.88;;;;;;;;;;5054988;28;20054;-87
2022/10/15 05:46:52;;;;;;;2.65;2.55;;;;;;;;;;5054885;28;20057;-87
2022/10/15 05:49:19;;;;;;;2.72;2.58;;;;;;;;;;5054976;28;20043;-87
2022/10/15 05:51:46;;;;;;;3.22;2.10;;;;;;;;;;5054680;28;20045;-87
2022/10/15 05:54:14;;;;;;;3.13;2.15;;;;;;;;;;5039146;28;20081;-87
2022/10/15 05:56:41;;;;;;;2.85;2.72;;;;;;;;;;5039477;28;20053;-86
2022/10/15 05:59:08;;;;;;;2.80;2.70;;;;;;;;;;5054753;28;20513;-87
2022/10/15 06:01:36;;;;;;;4.53;2.88;;;;;;;;;;5054817;28;20136;-87
2022/10/15 06:04:03;;;;;;;5.50;3.60;;;;;;;;;;5054664;28;20056;-87
2022/10/15 06:06:31;;;;;;;4.93;3.20;;;;;;;;;;5054797;28;20049;-86
2022/10/15 06:09:00;;;;;;;2.97;2.72;;;;;;;;;;5053981;28;20498;-87
2022/10/15 06:11:27;;;;;;;12.18;2.65;;;;;;;;;;5054770;28;20084;-87
2022/10/15 06:13:55;;;;;;;2.75;2.40;;;;;;;;;;5054617;28;20120;-87
2022/10/15 06:16:22;;;;;;;5.63;2.50;;;;;;;;;;5050829;28;20061;-87
2022/10/15 06:18:51;;;;;;;2.53;1.77;;;;;;;;;;5051239;28;20103;-87
2022/10/15 06:21:18;;;;;;;2.42;1.50;;;;;;;;;;5051507;28;20414;-87
2022/10/15 06:23:45;;;;;;;1.38;1.38;;;;;;;;;;5036001;28;20140;-87
2022/10/15 06:26:12;;;;;;;2.00;1.90;;;;;;;;;;5051475;28;20490;-87
2022/10/15 06:28:40;;;;;;;7.80;2.60;;;;;;;;;;5051426;28;20052;-87
2022/10/15 06:31:07;;;;;;;3.40;3.10;;;;;;;;;;5051296;28;20111;-87
2022/10/15 06:33:35;;;;;;;5.00;4.00;;;;;;;;;;5035784;28;20046;-87
2022/10/15 06:36:07;;;;;;;4.70;2.60;;;;;;;;;;5051074;28;20050;-87
2022/10/15 06:38:34;;;;;;;4.15;3.50;;;;;;;;;;5051389;28;20049;-86
2022/10/15 06:41:06;;;;;;;3.90;3.60;;;;;;;;;;5035711;28;20072;-86
2022/10/15 06:43:33;;;;;;;6.47;5.93;;;;;;;;;;5051421;28;20053;-87
2022/10/15 06:46:02;;;;;;;74.32;66.65;;;;;;;;;;5050876;28;20063;-86
2022/10/15 06:48:29;;;;;;;11.52;6.80;;;;;;;;;;5051171;28;20053;-86
2022/10/15 06:51:00;;;;;;;12.85;6.65;;;;;;;;;;5035962;28;20516;-87
2022/10/15 06:53:28;;;;;;;7.57;3.03;;;;;;;;;;5051316;28;20057;-86
2022/10/15 06:55:56;;;;;;;16.77;3.60;;;;;;;;;;5050988;28;20444;-86
2022/10/15 06:58:24;;;;;;;8.70;2.67;;;;;;;;;;5050798;28;20080;-86
2022/10/15 07:00:51;;;;;;;12.45;2.67;;;;;;;;;;5035331;28;20420;-86
2022/10/15 07:03:18;;;;;;;8.50;2.83;;;;;;;;;;5050742;28;20136;-86
2022/10/15 07:05:45;;;;;;;7.55;2.38;;;;;;;;;;5050847;28;20497;-86
2022/10/15 07:08:13;;;;;;;13.20;3.15;;;;;;;;;;5035370;28;20056;-86
2022/10/15 07:10:45;;;;;;;6.43;2.58;;;;;;;;;;5035003;28;20064;-86
2022/10/15 07:13:13;;;;;;;13.98;2.97;;;;;;;;;;5035254;28;20045;-86
2022/10/15 07:15:40;;;;;;;3.40;2.60;;;;;;;;;;5050046;28;20072;-86
2022/10/15 07:18:08;;;;;;;12.60;2.42;;;;;;;;;;5050151;28;20049;-86
2022/10/15 07:20:35;;;;;;;7.70;2.38;;;;;;;;;;5050390;28;20421;-86
2022/10/15 07:23:02;;;;;;;8.88;1.80;;;;;;;;;;5034636;28;20045;-86
2022/10/15 07:25:29;;;;;;;9.63;2.17;;;;;;;;;;5034552;28;20053;-85
2022/10/15 07:27:57;;;;;;;5.00;1.75;;;;;;;;;;5033592;28;20046;-86
2022/10/15 07:30:27;;;;;;;5.57;1.60;;;;;;;;;;5050343;28;20049;-86
2022/10/15 07:32:56;;;;;;;6.65;1.70;;;;;;;;;;5034744;28;20049;-86
2022/10/15 07:35:23;;;;;;;5.35;1.48;;;;;;;;;;5049628;28;20057;-86
2022/10/15 07:37:50;;;;;;;6.35;1.48;;;;;;;;;;5049780;28;20052;-86
2022/10/15 07:40:18;;;;;;;5.28;1.67;;;;;;;;;;5050077;28;20052;-86
2022/10/15 07:42:51;;;;;;;9.90;2.13;;;;;;;;;;5034515;28;20080;-86
2022/10/15 07:45:18;;;;;;;5.45;1.85;;;;;;;;;;5034370;28;20080;-86
2022/10/15 07:47:45;;;;;;;5.55;2.42;;;;;;;;;;5034152;28;20053;-85
2022/10/15 07:50:12;;;;;;;6.40;2.22;;;;;;;;;;5034314;28;20053;-86
2022/10/15 07:52:40;;;;;;;7.22;1.90;;;;;;;;;;5049527;28;20061;-86
2022/10/15 07:55:07;;;;;;;6.53;1.80;;;;;;;;;;5033953;28;20572;-86
2022/10/15 07:57:35;;;;;;;7.82;2.00;;;;;;;;;;5049501;28;20052;-86
2022/10/15 08:00:02;;;;;;;6.88;1.40;;;;;;;;;;5034230;28;20049;-87
2022/10/15 08:02:29;;;;;;;3.55;1.45;;;;;;;;;;5034299;28;20041;-86
2022/10/15 08:04:56;;;;;;;2.90;1.40;;;;;;;;;;5033762;28;20054;-86
2022/10/15 08:07:23;;;;;;;4.03;1.85;;;;;;;;;;5049466;28;20049;-85
2022/10/15 08:09:50;;;;;;;2.72;1.33;;;;;;;;;;5033505;28;20053;-85
2022/10/15 08:12:18;;;;;;;4.28;1.30;;;;;;;;;;5049236;28;20191;-86
2022/10/15 08:14:46;;;;;;;2.35;1.20;;;;;;;;;;5049118;28;20045;-87
2022/10/15 08:17:13;;;;;;;2.20;1.10;;;;;;;;;;5049117;28;20057;-86
2022/10/15 08:19:40;;;;;;;4.47;2.95;;;;;;;;;;5049172;28;20395;-86
2022/10/15 08:22:08;;;;;;;7.45;4.03;;;;;;;;;;5033701;28;20060;-86
2022/10/15 08:24:35;;;;;;;9.68;8.68;;;;;;;;;;5048958;28;20053;-86
2022/10/15 08:27:02;;;;;;;31.63;23.00;;;;;;;;;;5048795;28;20056;-86
2022/10/15 08:29:29;;;;;;;165.43;115.78;;;;;;;;;;5048667;28;20433;-86
2022/10/15 08:31:56;;;;;;;89.38;63.90;;;;;;;;;;5049032;28;20050;-86
2022/10/15 08:34:24;;;;;;;73.05;52.63;;;;;;;;;;5048816;28;20057;-86
2022/10/15 08:36:51;;;;;;;91.35;62.35;;;;;;;;;;5048850;28;20057;-86
2022/10/15 08:39:18;;;;;;;24.75;16.27;;;;;;;;;;5048910;28;20060;-86
2022/10/15 08:41:51;;;;;;;8.05;6.82;;;;;;;;;;5033515;28;20488;-86
2022/10/15 08:44:23;;;;;;;8.38;6.15;;;;;;;;;;5048843;28;20048;-87
2022/10/15 08:46:52;;;;;;;7.45;6.75;;;;;;;;;;5048782;28;20096;-87
2022/10/15 08:49:27;;;;;;;4.70;4.13;;;;;;;;;;5048683;28;20127;-86
2022/10/15 08:51:56;;;;;;;0.95;0.85;;;;;;;;;;5033108;28;20046;-87
2022/10/15 08:54:23;;;;;;;1.70;1.00;;;;;;;;;;5048801;28;20494;-86
2022/10/15 08:56:54;;;;;;;0.90;0.60;;;;;;;;;;5033129;28;20423;-86
2022/10/15 08:59:31;;;;;;;0.30;0.20;;;;;;;;;;5033105;28;20057;-87
2022/10/15 09:02:04;;;;;;;0.10;0.10;;;;;;;;;;5048578;28;20080;-87
2022/10/15 09:04:34;;;;;;;0.73;0.10;;;;;;;;;;5033148;28;20045;-86
2022/10/15 09:07:09;;;;;;;0.63;0.10;;;;;;;;;;5033086;28;20077;-87
2022/10/15 09:09:51;;;;;;;0.45;0.10;;;;;;;;;;5033107;28;20092;-88
2022/10/15 09:12:37;;;;;;;0.95;0.10;;;;;;;;;;5048617;28;20053;-87
2022/10/15 09:15:08;;;;;;;15.85;1.33;;;;;;;;;;5048288;28;20045;-86
2022/10/15 09:17:36;;;;;;;0.32;0.10;;;;;;;;;;5048144;28;20124;-88
2022/10/15 09:20:06;;;;;;;0.20;0.10;;;;;;;;;;5048149;28;20068;-85
2022/10/15 09:22:35;;;;;;;13.85;3.70;;;;;;;;;;5032664;28;20053;-86
2022/10/15 09:25:18;;;;;;;0.10;0.10;;;;;;;;;;5048064;28;20060;-89
2022/10/15 09:27:47;;;;;;;0.03;0.03;;;;;;;;;;5048011;28;20054;-88
2022/10/15 09:30:34;;;;;;;1.17;0.00;;;;;;;;;;5048502;28;20505;-86
2022/10/15 09:33:05;;;;;;;0.20;0.00;;;;;;;;;;5048350;28;20053;-86
2022/10/15 09:35:36;;;;;;;0.10;0.00;;;;;;;;;;5048021;28;20049;-86
2022/10/15 09:38:20;;;;;;;0.00;0.00;;;;;;;;;;5048131;28;20049;-86
2022/10/15 09:41:06;;;;;;;1.75;0.10;;;;;;;;;;5033276;28;20501;-86
2022/10/15 09:43:35;;;;;;;0.00;0.00;;;;;;;;;;5048287;28;20049;-88
2022/10/15 09:46:03;;;;;;;0.00;0.00;;;;;;;;;;5032712;28;20050;-86
2022/10/15 09:48:33;;;;;;;0.00;0.00;;;;;;;;;;5048049;28;20050;-86
2022/10/15 09:51:03;;;;;;;0.20;0.00;;;;;;;;;;5050702;28;20041;-90
2022/10/15 09:53:39;;;;;;;0.00;0.00;;;;;;;;;;5036325;28;20445;-92
2022/10/15 09:56:07;;;;;;;1.23;0.13;;;;;;;;;;5036334;28;20049;-87
2022/10/15 09:58:38;;;;;;;0.00;0.00;;;;;;;;;;5036262;28;20046;-87
2022/10/15 10:01:06;;;;;;;0.57;0.22;;;;;;;;;;5051692;28;20057;-87
2022/10/15 10:03:35;;;;;;;0.10;0.10;;;;;;;;;;5051563;28;20049;-88
2022/10/15 10:06:14;;;;;;;0.00;0.00;;;;;;;;;;5036007;28;20053;-86
2022/10/15 10:08:58;;;;;;;1.35;0.05;;;;;;;;;;5051600;28;20049;-89
2022/10/15 10:11:26;;;;;;;0.00;0.00;;;;;;;;;;5036142;28;20049;-87
2022/10/15 10:13:54;;;;;;;0.08;0.08;;;;;;;;;;5051301;28;20050;-86
2022/10/15 10:16:23;;;;;;;0.10;0.08;;;;;;;;;;5051054;28;20056;-86
2022/10/15 10:19:02;;;;;;;0.20;0.17;;;;;;;;;;5049733;28;20599;-86
2022/10/15 10:21:31;;;;;;;0.10;0.10;;;;;;;;;;5036044;28;20060;-86
2022/10/15 10:24:19;;;;;;;0.00;0.00;;;;;;;;;;5051277;28;20103;-86
2022/10/15 10:26:47;;;;;;;0.63;0.17;;;;;;;;;;5035699;28;20077;-87
2022/10/15 10:29:17;;;;;;;1.10;0.10;;;;;;;;;;5051064;28;20052;-86
2022/10/15 10:31:59;;;;;;;0.10;0.10;;;;;;;;;;5035895;28;20486;-86
2022/10/15 10:34:28;;;;;;;0.38;0.20;;;;;;;;;;5050840;28;20057;-85
2022/10/15 10:36:55;;;;;;;0.85;0.30;;;;;;;;;;5050967;28;20501;-86
2022/10/15 10:39:30;;;;;;;1.58;0.10;;;;;;;;;;5035680;28;20049;-85
2022/10/15 10:42:03;;;;;;;0.10;0.10;;;;;;;;;;5035473;28;20053;-85
2022/10/15 10:44:30;;;;;;;0.82;0.10;;;;;;;;;;5035376;28;20045;-86
2022/10/15 10:47:02;;;;;;;0.55;0.22;;;;;;;;;;5035538;28;20056;-86
2022/10/15 10:49:40;;;;;;;0.00;0.00;;;;;;;;;;5051061;28;20041;-90
2022/10/15 10:52:28;;;;;;;0.63;0.00;;;;;;;;;;5051244;28;20045;-88
2022/10/15 10:55:00;;;;;;;0.00;0.00;;;;;;;;;;5034535;28;20445;-87
2022/10/15 10:57:42;;;;;;;5.88;0.10;;;;;;;;;;5050952;28;20060;-88
2022/10/15 11:00:20;;;;;;;0.00;0.00;;;;;;;;;;5051122;28;20049;-86
2022/10/15 11:02:48;;;;;;;0.10;0.10;;;;;;;;;;5051204;28;20053;-87
2022/10/15 11:05:20;;;;;;;0.10;0.10;;;;;;;;;;5051452;28;20052;-86
2022/10/15 11:07:55;;;;;;;0.10;0.10;;;;;;;;;;5051088;28;20045;-91
2022/10/15 11:10:25;;;;;;;0.63;0.15;;;;;;;;;;5050426;28;20058;-87
2022/10/15 11:12:58;;;;;;;0.10;0.10;;;;;;;;;;5035090;28;20059;-87
2022/10/15 11:15:38;;;;;;;0.30;0.30;;;;;;;;;;5035425;28;20053;-88
2022/10/15 11:18:20;;;;;;;0.15;0.15;;;;;;;;;;5050517;28;20053;-87
2022/10/15 11:20:56;;;;;;;0.80;0.30;;;;;;;;;;5050227;28;20053;-86
2022/10/15 11:23:36;;;;;;;2.20;0.20;;;;;;;;;;5049477;28;20045;-88
2022/10/15 11:26:22;;;;;;;0.68;0.28;;;;;;;;;;5050513;28;20422;-87
2022/10/15 11:28:52;;;;;;;0.22;0.22;;;;;;;;;;5050602;28;20065;-88
2022/10/15 11:31:28;;;;;;;0.20;0.20;;;;;;;;;;5050825;28;20053;-87
2022/10/15 11:34:14;;;;;;;0.17;0.17;;;;;;;;;;5050263;28;20057;-86
2022/10/15 11:37:11;;;;;;;0.20;0.20;;;;;;;;;;5050096;28;20053;-86
2022/10/15 11:39:48;;;;;;;2.10;0.55;;;;;;;;;;4981711;28;20047;-91
2022/10/15 11:42:17;;;;;;;0.30;0.20;;;;;;;;;;5034479;28;20046;-87
2022/10/15 11:44:44;;;;;;;0.30;0.30;;;;;;;;;;5034412;28;20076;-86
2022/10/15 11:47:26;;;;;;;0.22;0.17;;;;;;;;;;5049843;28;20042;-86
2022/10/15 11:49:54;;;;;;;0.10;0.10;;;;;;;;;;5049910;28;20057;-90
2022/10/15 11:52:39;;;;;;;0.30;0.30;;;;;;;;;;5050075;28;20049;-87
2022/10/15 11:55:17;;;;;;;0.20;0.20;;;;;;;;;;5034346;28;20053;-87
2022/10/15 11:57:45;;;;;;;0.28;0.22;;;;;;;;;;5049720;28;20053;-88
2022/10/15 12:00:33;;;;;;;0.25;0.25;;;;;;;;;;5049714;28;20072;-88
2022/10/15 12:03:18;;;;;;;0.10;0.10;;;;;;;;;;5033097;28;20060;-88
2022/10/15 12:05:48;;;;;;;1.13;0.10;;;;;;;;;;5050018;28;20045;-88
2022/10/15 12:08:16;;;;;;;0.47;0.10;;;;;;;;;;5049658;28;20056;-91
2022/10/15 12:10:46;;;;;;;0.10;0.10;;;;;;;;;;5049680;28;20072;-90
2022/10/15 12:13:19;;;;;;;0.38;0.20;;;;;;;;;;5033545;28;20504;-88
2022/10/15 12:16:05;;;;;;;1.30;0.10;;;;;;;;;;5033916;28;20056;-89
2022/10/15 12:18:47;;;;;;;0.65;0.13;;;;;;;;;;5049270;28;20046;-86
2022/10/15 12:21:32;;;;;;;0.43;0.20;;;;;;;;;;5048971;28;20053;-86
2022/10/15 12:23:59;;;;;;;0.28;0.20;;;;;;;;;;5049359;28;20053;-87
2022/10/15 12:26:31;;;;;;;1.30;0.30;;;;;;;;;;5034008;28;20052;-87
2022/10/15 12:28:59;;;;;;;0.57;0.10;;;;;;;;;;5049048;28;20042;-86
2022/10/15 12:31:43;;;;;;;0.20;0.10;;;;;;;;;;5048744;28;20107;-89
2022/10/15 12:34:24;;;;;;;0.20;0.20;;;;;;;;;;5033934;28;20053;-87
2022/10/15 12:37:02;;;;;;;0.35;0.10;;;;;;;;;;5035382;28;20061;-88
2022/10/15 12:39:29;;;;;;;0.05;0.00;;;;;;;;;;5034523;28;20073;-87
2022/10/15 12:42:21;;;;;;;2.63;0.10;;;;;;;;;;5033724;28;20544;-86
2022/10/15 12:44:48;;;;;;;0.10;0.10;;;;;;;;;;5049122;28;20057;-87
2022/10/15 12:47:35;;;;;;;0.10;0.10;;;;;;;;;;5049573;28;20391;-87
2022/10/15 12:50:04;;;;;;;1.83;0.15;;;;;;;;;;5048703;28;20088;-89
2022/10/15 12:52:50;;;;;;;0.63;0.52;;;;;;;;;;5048947;28;20136;-89
2022/10/15 12:55:20;;;;;;;0.25;0.17;;;;;;;;;;5049084;28;20056;-89
2022/10/15 12:57:48;;;;;;;0.10;0.10;;;;;;;;;;5049080;28;20057;-88
2022/10/15 13:00:27;;;;;;;0.20;0.20;;;;;;;;;;5048977;28;20041;-90
2022/10/15 13:03:00;;;;;;;0.20;0.20;;;;;;;;;;5048755;28;20057;-88
2022/10/15 13:05:28;;;;;;;2.30;0.20;;;;;;;;;;5034093;28;20437;-90
2022/10/15 13:07:56;;;;;;;0.10;0.10;;;;;;;;;;5033356;28;20417;-88
2022/10/15 13:10:47;;;;;;;0.28;0.10;;;;;;;;;;5048753;28;20061;-86
2022/10/15 13:13:16;;;;;;;0.10;0.10;;;;;;;;;;5025768;28;20049;-90
2022/10/15 13:15:49;;;;;;;0.30;0.20;;;;;;;;;;5049968;28;20049;-92
2022/10/15 13:18:23;;;;;;;1.13;0.20;;;;;;;;;;5049122;28;20482;-87
2022/10/15 13:20:53;;;;;;;1.60;0.30;;;;;;;;;;5049040;28;20045;-90
2022/10/15 13:23:24;;;;;;;0.10;0.10;;;;;;;;;;5049235;28;20464;-89
2022/10/15 13:26:17;;;;;;;0.10;0.10;;;;;;;;;;5052501;28;20115;-93
2022/10/15 13:28:45;;;;;;;1.95;0.20;;;;;;;;;;5053206;28;20486;-90
2022/10/15 13:31:34;;;;;;;0.90;0.20;;;;;;;;;;5052824;28;20045;-87
2022/10/15 13:34:04;;;;;;;0.30;0.30;;;;;;;;;;5052934;28;20386;-91
2022/10/15 13:36:32;;;;;;;0.22;0.22;;;;;;;;;;5052916;28;20046;-91
2022/10/15 13:39:02;;;;;;;0.38;0.30;;;;;;;;;;5052963;28;20041;-88
2022/10/15 13:41:32;;;;;;;1.55;0.20;;;;;;;;;;5052802;28;20050;-92
2022/10/15 13:44:01;;;;;;;0.10;0.10;;;;;;;;;;5037008;28;20486;-87
2022/10/15 13:46:30;;;;;;;0.47;0.10;;;;;;;;;;5052587;28;20053;-88
2022/10/15 13:48:59;;;;;;;0.77;0.57;;;;;;;;;;5052362;28;20064;-90
2022/10/15 13:51:32;;;;;;;1.88;0.25;;;;;;;;;;5036879;28;20053;-88
2022/10/15 13:54:00;;;;;;;0.20;0.20;;;;;;;;;;5052633;28;20402;-87
2022/10/15 13:56:29;;;;;;;0.30;0.30;;;;;;;;;;5052294;28;20493;-88
2022/10/15 13:58:57;;;;;;;0.35;0.10;;;;;;;;;;5036900;28;20086;-87
2022/10/15 14:01:25;;;;;;;0.85;0.20;;;;;;;;;;5053071;28;20053;-87
2022/10/15 14:03:52;;;;;;;1.65;0.20;;;;;;;;;;5036747;28;20076;-90
2022/10/15 14:06:21;;;;;;;0.82;0.20;;;;;;;;;;5052762;28;20045;-91
2022/10/15 14:08:53;;;;;;;0.85;0.40;;;;;;;;;;5052141;28;20073;-89
2022/10/15 14:11:20;;;;;;;0.65;0.20;;;;;;;;;;5052167;28;20057;-88
2022/10/15 14:13:48;;;;;;;0.30;0.13;;;;;;;;;;5052222;28;20067;-89
2022/10/15 14:16:25;;;;;;;0.40;0.17;;;;;;;;;;5052061;28;20046;-94
2022/10/15 14:18:54;;;;;;;2.97;0.25;;;;;;;;;;5051697;28;20049;-90
2022/10/15 14:21:27;;;;;;;0.25;0.20;;;;;;;;;;5052361;28;20049;-88
2022/10/15 14:24:02;;;;;;;0.85;0.40;;;;;;;;;;5036731;28;20153;-91
2022/10/15 14:26:31;;;;;;;0.20;0.20;;;;;;;;;;5052088;28;20136;-88
2022/10/15 14:28:58;;;;;;;0.30;0.30;;;;;;;;;;5036537;28;20045;-89
2022/10/15 14:31:30;;;;;;;1.08;0.20;;;;;;;;;;5051825;28;20049;-87
2022/10/15 14:33:57;;;;;;;0.52;0.30;;;;;;;;;;5051822;28;20397;-88
2022/10/15 14:36:25;;;;;;;0.73;0.30;;;;;;;;;;5050816;28;20124;-90
2022/10/15 14:38:53;;;;;;;3.30;0.40;;;;;;;;;;5035932;28;20060;-87
2022/10/15 14:41:22;;;;;;;0.28;0.28;;;;;;;;;;5051219;28;20049;-87
2022/10/15 14:44:08;;;;;;;1.27;0.30;;;;;;;;;;5035780;28;20049;-87
2022/10/15 14:46:37;;;;;;;0.95;0.50;;;;;;;;;;5051337;28;20052;-87
2022/10/15 14:49:14;;;;;;;0.30;0.30;;;;;;;;;;5051273;28;20049;-87
2022/10/15 14:51:42;;;;;;;0.32;0.22;;;;;;;;;;5035606;28;20053;-89
2022/10/15 14:54:18;;;;;;;0.80;0.22;;;;;;;;;;5035518;28;20076;-89
2022/10/15 14:56:45;;;;;;;1.27;0.20;;;;;;;;;;5051040;28;20108;-90
2022/10/15 14:59:16;;;;;;;1.55;0.40;;;;;;;;;;5035653;28;20060;-88
2022/10/15 15:01:57;;;;;;;0.25;0.20;;;;;;;;;;5051019;28;20050;-87
2022/10/15 15:04:49;;;;;;;0.20;0.20;;;;;;;;;;5050309;28;20422;-87